Aeroporto :







RITROVATECI SU...

 
LOGIN :

Iscrizione | Disclaimer

   EN    FR    IT 

 









Sommario :    VFR   VFR Marginale   IFR   IFR Intensivo   IFR Molto Intensivo
Visibilità : 
Base nubi : 
>= 8 km
>= 3000ft
5 / 8 km
1000 / 3000 ft
1500m / 5 km
500 / 1000 ft
800 / 1500m
200 / 500 ft
< 800m
< 200 ft
Simboli :   Temporali  Nebbia  Neve Forte  Precipitazioni Forti  Vento > 20 kt






- Altitudine del aeroporto : 496 ft
- Codice IATA : YQX


CYQX - Gander

ULTIMO METAR :
  • 242300Z 10008KT 20SM FEW075 FEW260 06/M01 A3018 RMK AC1CI1 AC TR CI TR SLP227

METARs OBSOLETI :
  • 242200Z 09014KT 20SM FEW075 FEW260 08/M00 A3016 RMK AC1CI1 AC TR CI TR SLP219
  • 242100Z 07012G20KT 20SM FEW065 FEW075 FEW260 10/M00 A3013 RMK CU1AC1CI1 AC TR CI TR SLP211

TAF TAF CYQX
Valido dal 25 a 00 ore il 26 a 00 ore UTC


242330Z 2500/2524 10008KT P6SM FEW070 SCT240
BECMG 2500/2502 19005KT
BECMG 2509/2511 22012KT
FM251500 24015G25KT P6SM BKN180
FM251900 24018G28KT P6SM SCT080 RMK NXT FCST BY 250600Z
FIR CZQX / America del Nord



MetMap, La meteo Aeronautica in un colpo d'occhio ! - Copyright ORBIFLY Dicembre 2007 - Disclaimer

ORBIFLY MET'MAP TEAM :

Programmazione e sviluppo : Alexandra Zaïnal
Concezione : Baudouin d'Aumeries
Aiuto per la programmazione : Marc-Olivier Méhu
Supporto tecnico e logistico : Manuel Goepfert
Aiuto per la traduzione : Arnaldo La Scala

Contatto : metmap@orbifly.com




FONTI E CREDITI :

   NOAA